Portada
METAR-TAF:

METAR-TAF

Aeroports :

Koumac, Nova Caledònia

latitud: 20-34S, longitud: 164-17E, altitud: 23 m

METAR: manca

Hora: 22:09 (11:09 UTC)

Pronòstic

L'informe es va fer fa 6 hores i 9 minuts, a les 05:00 UTC
Pronòstic vàlid del 23 a les 06 UTC al 24 a les 06 UTC
Vent 2 kt amb direcció variable
Visibilitat 10 km o més
Núvols disperses a una alçada de 2000 ft
Núvols disperses a una alçada de 5000 ft
Temporalment
l' 23 a les 06 UTC al 23 a les 08 UTC
Visibilitat: 4000 m
Cel ennuvolat a una alçada de 1000 ft
Núvols disperses a una alçada de 1800 ft, Cumulus congestus.
xàfecs de pluja
Probabilitat 40%
l' 24 a les 00 UTC al 24 a les 06 UTC
Visibilitat: 2000 m
Cel ennuvolat a una alçada de 800 ft
Núvols disperses a una alçada de 1500 ft, Cumulonimbus.
Núvols disperses a una alçada de 1800 ft, Cumulus congestus.
xàfecs de pluja

TAF: NWWK 230500Z 2306/2406 VRB02KT 9999 SCT020 SCT050 TEMPO 2306/2308 4000 SHRA BKN010 SCT018TCU PROB40 2400/2406 2000 SHRA BKN008 SCT015CB SCT018TCU

Observacions i pronòstics meteorològics de més de 4000 aeroports (METAR i TAF).

Les estacions disponibles són els punts grocs i vermells al mapa.

Posi el ratolí al punt desitjat per veure el nom de l'estació.

Feu clic per veure les observacions i els pronòstics meteorològics.

Per canviar el mapa: feu clic els botons verds amb una creu de color negre per apropar; al botó verd amb un guió per allunyar la imatge; o en les fletxes verdes per a mapes adjacents.


METAR-TAF: